X-MMTG weather

Francisco Sarabia National Airport
Tuxtla Gutiérrez, Chiapas, Mexico

Public forecast

Using degrees Celsius for public forecast. Weather courtesy of forecast.io.

Closest aviation weather report (METAR) to Francisco Sarabia National Airport

Report is more than 6 hours old.

Closest report is Terán Air Base, 9.8 nm (18.2 km) E. Retrieved 2016/05/26 14:40 UTC (4 years ago):

MMTB 261440Z VRB02KT 7SM SKC 30/22 A3004 RMK TZ CI HZY

Closest aviation forecast (TAF) to Francisco Sarabia National Airport

Forecast is more than 12 hours old.

Closest forecast is Angel Albino Corzo International Airport, 22.1 nm (41.0 km) SE. Retrieved 2019/12/08 18:24 UTC (16 hours ago):

TAF MMTG 081621Z 0818/0918 32005KT P6SM SCT020 SCT300 BECMG 0820/0821 32012KT FM090200 32005KT P6SM SCT080 BECMG 0905/0906 00000KT SCT015 FM091000 00000KT 3SM BR HZ BKN015 FM091500 12005KT 6SM HZ SCT020